KADH

Ada Regional Airport

Ada, Oklahoma, USA
METAR KADH 191135Z AUTO 15006KT 1/2SM FG OVC001 07/07 A2988 RMK AO2
Observed Flight Rules
Dec-19 @ 11:35 UTC (32 minutes ago) Instrument Flight Rules
Wind Visibility Clouds Conditions
150° at 6 knots 1/2 miles
  • Overcast at 100' AGL
  • Fog
Temperatures Readings
Current 7°C / 45°F
Dewpoint 7°C / 45°F
Humidity 100%
Altimeter 29.88" Hg
Pressure 1012 hPa
Elevation 308
METAR KADH 191135Z AUTO 15006KT 1/2SM FG OVC001 07/07 A2988 RMK AO2
Observed Flight Rules
Dec-19 @ 11:35 UTC
(32 minutes ago)
LIFR
Wind Visibility
150° at 6 knots 1/2 miles
Clouds
  • Overcast at 100' AGL
Conditions
  • Fog
Temperature Dewpoint
7°C / 45°F 7°C / 45°F
Humidity Altimeter Pressure
100% 29.88" Hg 1012 hPa